Time;durP1;ratioP1;P1;durP2;ratioP2;P2;SDS_P1;SDS_P2;PMS_P1;PMS_P2;Temp;Humidity;BMP_temperature;BMP_pressure;BME280_temperature;BME280_humidity;BME280_pressure;Samples;Min_cycle;Max_cycle;Signal;HPM_P1;HPM_P2
2022/05/01 00:01:21;;;;;;;6.57;5.28;;;11.30;99.90;;;;;;4971133;28;20322;-59
2022/05/01 00:03:49;;;;;;;5.63;3.78;;;11.30;99.90;;;;;;4972242;28;20223;-60
2022/05/01 00:06:19;;;;;;;5.95;4.10;;;11.30;99.90;;;;;;4979218;28;20298;-61
2022/05/01 00:08:48;;;;;;;4.28;3.92;;;11.30;99.90;;;;;;4976000;28;20724;-60
2022/05/01 00:11:16;;;;;;;7.30;4.53;;;11.30;99.90;;;;;;4982077;28;20740;-60
2022/05/01 00:13:45;;;;;;;5.10;4.40;;;11.20;99.90;;;;;;4970468;28;20195;-59
2022/05/01 00:16:14;;;;;;;5.20;4.57;;;11.00;99.90;;;;;;4970974;28;20821;-61
2022/05/01 00:18:42;;;;;;;7.70;4.85;;;10.80;99.90;;;;;;4971210;28;20204;-61
2022/05/01 00:21:10;;;;;;;4.10;3.80;;;10.60;99.90;;;;;;4970868;28;20230;-60
2022/05/01 00:23:38;;;;;;;5.03;4.18;;;10.60;99.90;;;;;;4972328;28;20222;-61
2022/05/01 00:26:08;;;;;;;5.35;4.85;;;10.70;99.90;;;;;;5027483;23;20240;-61
2022/05/01 00:28:37;;;;;;;4.85;3.72;;;10.80;99.90;;;;;;5024031;28;20242;-61
2022/05/01 00:31:05;;;;;;;4.80;4.40;;;10.90;99.90;;;;;;5015359;28;20218;-62
2022/05/01 00:36:28;;;;;;;8.73;4.10;;;11.20;99.90;;;;;;5022964;28;20743;-63
2022/05/01 00:38:58;;;;;;;6.60;4.18;;;11.20;99.90;;;;;;5034445;27;20892;-63
2022/05/01 00:41:27;;;;;;;5.60;3.45;;;11.10;99.90;;;;;;5010470;28;20225;-63
2022/05/01 00:44:04;;;;;;;4.80;4.05;;;11.20;99.90;;;;;;5018560;28;20246;-63
2022/05/01 00:46:33;;;;;;;4.07;3.78;;;11.20;99.90;;;;;;5029769;28;20660;-63
2022/05/01 00:49:04;;;;;;;5.85;4.40;;;11.20;99.90;;;;;;5029192;28;20581;-64
2022/05/01 00:51:35;;;;;;;6.30;3.85;;;11.10;99.90;;;;;;5029359;28;20201;-63
2022/05/01 00:54:07;;;;;;;6.35;3.50;;;11.30;99.90;;;;;;5028915;28;20280;-63
2022/05/01 00:56:38;;;;;;;4.28;3.70;;;11.30;99.90;;;;;;5029218;28;20228;-64
2022/05/01 00:59:06;;;;;;;4.07;3.67;;;11.30;99.90;;;;;;5029200;28;20307;-64
2022/05/01 01:01:34;;;;;;;3.88;3.58;;;11.40;99.90;;;;;;5017121;28;20229;-63
2022/05/01 01:04:02;;;;;;;5.13;4.32;;;11.40;99.90;;;;;;5017234;28;20674;-63
2022/05/01 01:06:30;;;;;;;4.63;4.07;;;11.40;99.90;;;;;;5015866;28;20315;-63
2022/05/01 01:08:58;;;;;;;5.03;4.05;;;11.40;99.90;;;;;;5009985;28;20206;-64
2022/05/01 01:11:26;;;;;;;3.95;3.65;;;11.40;99.90;;;;;;5016354;28;20239;-63
2022/05/01 01:13:55;;;;;;;4.03;3.47;;;11.40;99.90;;;;;;5009263;28;20666;-63
2022/05/01 01:16:23;;;;;;;5.35;3.95;;;11.40;99.90;;;;;;5010419;28;20225;-63
2022/05/01 01:18:51;;;;;;;4.05;3.75;;;11.40;99.90;;;;;;5010055;28;20219;-63
2022/05/01 01:21:20;;;;;;;4.47;4.07;;;11.40;99.90;;;;;;5009784;28;20662;-62
2022/05/01 01:23:49;;;;;;;4.80;3.58;;;11.40;99.90;;;;;;5009156;28;20725;-63
2022/05/01 01:26:17;;;;;;;5.28;3.78;;;11.40;99.90;;;;;;5009612;28;20332;-64
2022/05/01 01:28:46;;;;;;;4.55;4.07;;;11.20;99.90;;;;;;5009884;28;20229;-62
2022/05/01 01:34:05;;;;;;;4.65;4.25;;;10.90;99.90;;;;;;5022189;28;20727;-63
2022/05/01 01:36:37;;;;;;;5.30;4.10;;;10.90;99.90;;;;;;5021209;28;20239;-62
2022/05/01 01:39:06;;;;;;;8.07;4.30;;;10.80;99.90;;;;;;5009904;28;20649;-64
2022/05/01 01:41:35;;;;;;;4.68;4.28;;;10.90;99.90;;;;;;5009725;28;20491;-62
2022/05/01 01:44:04;;;;;;;4.80;4.45;;;10.90;99.90;;;;;;5008715;28;20252;-63
2022/05/01 01:46:33;;;;;;;5.82;5.28;;;10.80;99.90;;;;;;5009567;28;20247;-64
2022/05/01 01:49:01;;;;;;;8.27;5.00;;;10.80;99.90;;;;;;5009870;28;20204;-63
2022/05/01 01:51:29;;;;;;;5.00;4.60;;;10.60;99.90;;;;;;5013308;28;20251;-62
2022/05/01 01:53:58;;;;;;;4.57;4.25;;;10.50;99.90;;;;;;5028203;28;20283;-62
2022/05/01 01:56:26;;;;;;;5.68;4.53;;;10.60;99.90;;;;;;5028225;28;20646;-61
2022/05/01 01:58:54;;;;;;;5.57;4.45;;;10.50;99.90;;;;;;5028323;28;20316;-61
2022/05/01 02:01:21;;;;;;;7.43;5.25;;;10.50;99.90;;;;;;5028426;28;20209;-61
2022/05/01 02:03:50;;;;;;;6.20;4.75;;;10.60;99.90;;;;;;5027564;28;20320;-64
2022/05/01 02:06:18;;;;;;;6.93;4.93;;;10.70;99.90;;;;;;5015813;28;20613;-64
2022/05/01 02:08:47;;;;;;;4.80;4.13;;;10.70;99.90;;;;;;5020024;28;20626;-61
2022/05/01 02:11:17;;;;;;;5.15;4.65;;;10.80;99.90;;;;;;5018573;28;20288;-61
2022/05/01 02:13:45;;;;;;;5.18;4.72;;;10.80;99.90;;;;;;5008642;28;20206;-61
2022/05/01 02:16:13;;;;;;;6.10;4.75;;;10.80;99.90;;;;;;5009005;28;20558;-61
2022/05/01 02:18:41;;;;;;;6.35;5.15;;;10.80;99.90;;;;;;5008410;28;20201;-62
2022/05/01 02:23:54;;;;;;;4.88;4.53;;;10.90;99.90;;;;;;5008536;28;20304;-61
2022/05/01 02:26:23;;;;;;;4.80;4.30;;;11.00;99.90;;;;;;5021898;28;20271;-60
2022/05/01 02:28:51;;;;;;;6.32;4.75;;;11.00;99.90;;;;;;5028031;28;20299;-61
2022/05/01 02:31:19;;;;;;;5.10;4.60;;;10.90;99.90;;;;;;5009108;28;20233;-63
2022/05/01 02:33:47;;;;;;;5.38;4.40;;;11.00;99.90;;;;;;5015049;28;20253;-61
2022/05/01 02:36:16;;;;;;;5.82;5.22;;;10.90;99.90;;;;;;5019516;28;20796;-62
2022/05/01 02:38:44;;;;;;;5.57;5.00;;;11.00;99.90;;;;;;5030397;27;20201;-62
2022/05/01 02:41:12;;;;;;;4.93;4.45;;;11.00;99.90;;;;;;5013796;28;20212;-61
2022/05/01 02:43:42;;;;;;;5.10;4.60;;;11.00;99.90;;;;;;5021707;28;20618;-62
2022/05/01 02:46:09;;;;;;;5.03;4.03;;;11.00;99.90;;;;;;5027268;28;20260;-62
2022/05/01 02:48:38;;;;;;;4.70;4.40;;;11.00;99.90;;;;;;5027683;28;20211;-62
2022/05/01 02:51:05;;;;;;;6.28;4.88;;;11.10;99.90;;;;;;5027479;28;20283;-62
2022/05/01 02:53:34;;;;;;;5.05;4.63;;;11.10;99.90;;;;;;5026913;28;20280;-61
2022/05/01 02:56:01;;;;;;;7.60;4.75;;;11.10;99.90;;;;;;5027389;28;20286;-62
2022/05/01 02:58:30;;;;;;;7.07;5.90;;;11.10;99.90;;;;;;5026319;28;20240;-61
2022/05/01 03:01:00;;;;;;;5.10;4.55;;;11.10;99.90;;;;;;5026527;28;20693;-62
2022/05/01 03:03:29;;;;;;;6.03;5.57;;;11.10;99.90;;;;;;5011261;28;20219;-62
2022/05/01 03:05:58;;;;;;;5.72;5.28;;;11.10;99.90;;;;;;5017191;28;20751;-62
2022/05/01 03:08:27;;;;;;;5.47;4.95;;;11.00;99.90;;;;;;5008621;28;20206;-62
2022/05/01 03:10:54;;;;;;;6.30;5.72;;;10.90;99.90;;;;;;5020395;28;20224;-62
2022/05/01 03:13:22;;;;;;;5.93;5.32;;;10.80;99.90;;;;;;5007866;28;20655;-62
2022/05/01 03:15:50;;;;;;;7.18;6.43;;;10.90;99.90;;;;;;5009733;28;20274;-64
2022/05/01 03:23:51;;;;;;;8.68;6.53;;;10.90;99.90;;;;;;5026447;28;20213;-63
2022/05/01 03:26:19;;;;;;;7.93;6.18;;;10.80;99.90;;;;;;5026780;28;20392;-62
2022/05/01 03:28:47;;;;;;;5.55;4.78;;;10.60;99.90;;;;;;5008272;28;20601;-62
2022/05/01 03:31:16;;;;;;;8.85;6.10;;;10.70;99.90;;;;;;5010311;28;20206;-63
2022/05/01 03:33:46;;;;;;;5.95;5.45;;;10.80;99.90;;;;;;5018678;28;20209;-61
2022/05/01 03:36:14;;;;;;;8.75;5.95;;;10.80;99.90;;;;;;5021570;28;20224;-62
2022/05/01 03:38:43;;;;;;;6.20;5.60;;;10.80;99.90;;;;;;5032175;27;20205;-62
2022/05/01 03:41:15;;;;;;;7.03;6.18;;;10.70;99.90;;;;;;5011651;28;20669;-63
2022/05/01 03:43:44;;;;;;;7.40;5.63;;;10.60;99.90;;;;;;5016532;28;20232;-63
2022/05/01 03:46:11;;;;;;;6.65;5.75;;;10.50;99.90;;;;;;5011362;28;20336;-63
2022/05/01 03:48:40;;;;;;;5.70;5.20;;;10.50;99.90;;;;;;5011881;28;20666;-62
2022/05/01 03:51:09;;;;;;;6.25;5.05;;;10.60;99.90;;;;;;5017462;28;20746;-63
2022/05/01 03:53:37;;;;;;;5.80;5.30;;;10.70;99.90;;;;;;5010969;28;20244;-62
2022/05/01 03:56:06;;;;;;;6.60;6.10;;;10.70;99.90;;;;;;5017269;28;20254;-62
2022/05/01 03:58:34;;;;;;;6.03;5.43;;;10.70;99.90;;;;;;5011480;28;20309;-62
2022/05/01 04:01:01;;;;;;;7.03;6.30;;;10.80;99.90;;;;;;5017051;28;20193;-62
2022/05/01 04:03:29;;;;;;;7.30;6.18;;;10.90;99.90;;;;;;5013681;28;20417;-62
2022/05/01 04:05:58;;;;;;;8.20;7.35;;;10.90;99.90;;;;;;5019628;28;20918;-62
2022/05/01 04:08:27;;;;;;;8.18;6.25;;;10.90;99.90;;;;;;5025798;28;20209;-62
2022/05/01 04:10:55;;;;;;;6.15;5.72;;;10.80;99.90;;;;;;5022913;28;20247;-62
2022/05/01 04:13:23;;;;;;;6.32;5.82;;;10.80;99.90;;;;;;5010495;28;20205;-61
2022/05/01 04:15:51;;;;;;;8.43;6.32;;;10.70;99.90;;;;;;5014260;28;20217;-62
2022/05/01 04:18:19;;;;;;;6.65;5.97;;;10.80;99.90;;;;;;5011174;28;20265;-62
2022/05/01 04:20:47;;;;;;;6.72;6.13;;;10.80;99.90;;;;;;5010960;28;20237;-62
2022/05/01 04:23:15;;;;;;;8.00;7.07;;;10.60;99.90;;;;;;5010277;28;20667;-62
2022/05/01 04:25:45;;;;;;;8.30;7.30;;;10.50;99.90;;;;;;5025077;28;20237;-61
2022/05/01 04:28:13;;;;;;;8.60;7.57;;;10.40;99.90;;;;;;5029970;28;20666;-62
2022/05/01 04:30:41;;;;;;;7.25;6.65;;;10.30;99.90;;;;;;5030085;28;20257;-63
2022/05/01 04:33:11;;;;;;;8.57;7.15;;;10.10;99.90;;;;;;5021191;28;20240;-63
2022/05/01 04:35:43;;;;;;;8.70;7.90;;;10.20;99.90;;;;;;5020500;28;20315;-63
2022/05/01 04:38:12;;;;;;;8.65;7.45;;;10.30;99.90;;;;;;5032800;27;20318;-62
2022/05/01 04:40:42;;;;;;;6.93;6.38;;;10.40;99.90;;;;;;5011199;28;20753;-62
2022/05/01 04:43:13;;;;;;;10.88;8.45;;;10.50;99.90;;;;;;5025366;28;20720;-63
2022/05/01 04:45:43;;;;;;;7.82;7.13;;;10.60;99.90;;;;;;5029268;28;20260;-61
2022/05/01 04:48:12;;;;;;;8.88;7.60;;;10.60;99.90;;;;;;5029435;28;20585;-63
2022/05/01 04:50:41;;;;;;;7.50;6.82;;;10.80;99.90;;;;;;5029362;28;20245;-63
2022/05/01 04:53:10;;;;;;;8.40;6.38;;;10.60;99.90;;;;;;5028751;28;20204;-63
2022/05/01 04:55:39;;;;;;;8.88;7.50;;;10.60;99.90;;;;;;5028725;28;20250;-62
2022/05/01 04:58:07;;;;;;;7.72;7.13;;;10.70;99.90;;;;;;5024013;28;20942;-63
2022/05/01 05:00:37;;;;;;;9.63;7.30;;;10.80;99.90;;;;;;5010593;28;20206;-62
2022/05/01 05:03:06;;;;;;;10.75;6.97;;;10.90;99.90;;;;;;5010205;28;21012;-63
2022/05/01 05:05:35;;;;;;;6.60;6.00;;;11.00;99.90;;;;;;5019811;28;20670;-63
2022/05/01 05:10:46;;;;;;;8.00;7.40;;;11.20;99.90;;;;;;5016816;28;20225;-63
2022/05/01 05:13:23;;;;;;;7.10;6.50;;;11.30;99.90;;;;;;5009620;28;20201;-61
2022/05/01 05:15:53;;;;;;;8.25;7.50;;;11.30;99.90;;;;;;5018702;28;20259;-63
2022/05/01 05:18:22;;;;;;;9.20;6.40;;;11.40;99.90;;;;;;5029071;28;20220;-62
2022/05/01 05:20:49;;;;;;;6.47;5.88;;;11.40;99.90;;;;;;5028978;28;20258;-62
2022/05/01 05:23:18;;;;;;;7.72;7.03;;;11.30;99.90;;;;;;5028521;28;20547;-63
2022/05/01 05:25:46;;;;;;;7.85;6.63;;;11.40;99.90;;;;;;5028410;28;20720;-62
2022/05/01 05:28:13;;;;;;;7.93;7.32;;;11.30;99.90;;;;;;5028926;28;20284;-63
2022/05/01 05:30:41;;;;;;;7.45;6.75;;;11.20;99.90;;;;;;5019967;28;20674;-62
2022/05/01 05:33:11;;;;;;;6.80;6.25;;;11.30;99.90;;;;;;5018162;28;20232;-63
2022/05/01 05:35:38;;;;;;;6.95;6.35;;;11.40;99.90;;;;;;5019051;28;20252;-63
2022/05/01 05:38:06;;;;;;;6.90;6.30;;;11.40;99.90;;;;;;5030407;27;20272;-63
2022/05/01 05:40:35;;;;;;;7.55;6.85;;;11.40;99.90;;;;;;5009916;28;20205;-63
2022/05/01 05:43:03;;;;;;;6.80;6.20;;;11.50;99.90;;;;;;5009206;28;20237;-63
2022/05/01 05:45:31;;;;;;;7.38;6.40;;;11.60;99.90;;;;;;5009253;28;20252;-63
2022/05/01 05:47:59;;;;;;;6.85;6.25;;;11.60;99.90;;;;;;5010477;28;20678;-62
2022/05/01 05:50:28;;;;;;;6.82;6.18;;;11.70;99.90;;;;;;5027483;28;20215;-63
2022/05/01 05:52:56;;;;;;;7.35;5.53;;;11.70;99.90;;;;;;5027865;28;20251;-62
2022/05/01 05:55:24;;;;;;;7.75;6.95;;;11.70;99.90;;;;;;5027039;28;20267;-62
2022/05/01 05:57:53;;;;;;;6.05;5.47;;;11.70;99.90;;;;;;5028344;28;20209;-62
2022/05/01 06:00:21;;;;;;;7.45;6.18;;;11.70;99.90;;;;;;5028605;28;20257;-61
2022/05/01 06:02:48;;;;;;;5.93;5.32;;;11.70;99.90;;;;;;5027733;28;20247;-61
2022/05/01 06:05:16;;;;;;;7.05;5.45;;;11.70;99.90;;;;;;5020883;28;20241;-62
2022/05/01 06:07:45;;;;;;;6.25;5.75;;;11.70;99.90;;;;;;5011714;28;20259;-62
2022/05/01 06:10:13;;;;;;;7.30;6.60;;;11.90;99.90;;;;;;5012761;28;20232;-61
2022/05/01 06:12:42;;;;;;;6.18;5.57;;;11.90;99.90;;;;;;5014903;28;20306;-62
2022/05/01 06:15:12;;;;;;;5.90;5.35;;;12.00;99.90;;;;;;5009639;28;20229;-62
2022/05/01 06:17:39;;;;;;;6.22;5.60;;;12.00;99.90;;;;;;5009178;28;20281;-62
2022/05/01 06:20:09;;;;;;;7.35;5.68;;;12.00;99.90;;;;;;5008800;28;20201;-62
2022/05/01 06:22:36;;;;;;;5.85;5.30;;;12.10;99.90;;;;;;5022446;27;20274;-63
2022/05/01 06:25:07;;;;;;;6.50;5.57;;;12.10;99.90;;;;;;5025650;27;20258;-62
2022/05/01 06:27:35;;;;;;;6.30;5.70;;;12.20;99.90;;;;;;5039069;27;20221;-62
2022/05/01 06:30:04;;;;;;;6.55;6.00;;;12.30;99.90;;;;;;5040672;27;20281;-62
2022/05/01 06:32:32;;;;;;;6.60;6.05;;;12.30;99.90;;;;;;5042806;27;20244;-63
2022/05/01 06:34:59;;;;;;;6.25;5.75;;;12.40;99.90;;;;;;5040525;27;20296;-62
2022/05/01 06:37:33;;;;;;;6.15;5.55;;;12.40;99.90;;;;;;5037832;27;20204;-62
2022/05/01 06:40:01;;;;;;;6.70;6.05;;;12.50;99.90;;;;;;5039017;27;21050;-62
2022/05/01 06:42:31;;;;;;;6.38;5.65;;;12.50;99.90;;;;;;5041558;27;20257;-62
2022/05/01 06:45:00;;;;;;;7.45;6.28;;;12.50;99.90;;;;;;5041474;27;20280;-62
2022/05/01 06:47:28;;;;;;;6.60;6.00;;;12.50;99.90;;;;;;5037873;28;20315;-62
2022/05/01 06:49:56;;;;;;;6.55;6.05;;;12.60;99.90;;;;;;5040577;27;20215;-63
2022/05/01 06:52:25;;;;;;;6.03;5.50;;;12.70;99.90;;;;;;5041378;27;20682;-63
2022/05/01 06:54:53;;;;;;;6.47;5.75;;;12.80;99.90;;;;;;5042390;28;20204;-63
2022/05/01 06:57:21;;;;;;;8.73;5.80;;;12.80;99.90;;;;;;5037646;27;20204;-63
2022/05/01 06:59:50;;;;;;;10.95;6.30;;;13.00;99.90;;;;;;5040383;28;20714;-62
2022/05/01 07:02:19;;;;;;;6.57;5.97;;;13.00;99.90;;;;;;5039214;28;20209;-62
2022/05/01 07:04:47;;;;;;;9.82;5.60;;;13.00;99.90;;;;;;5038571;27;20212;-62
2022/05/01 07:07:15;;;;;;;6.85;6.07;;;13.10;99.90;;;;;;5045441;27;20215;-62
2022/05/01 07:09:43;;;;;;;7.93;5.75;;;13.00;99.90;;;;;;5048223;27;20204;-62
2022/05/01 07:12:12;;;;;;;5.80;5.30;;;13.00;99.90;;;;;;5045633;27;20208;-62
2022/05/01 07:14:40;;;;;;;6.18;5.43;;;12.90;99.90;;;;;;5045560;27;20215;-62
2022/05/01 07:17:09;;;;;;;15.60;6.22;;;12.90;99.90;;;;;;5044918;27;20248;-62
2022/05/01 07:19:37;;;;;;;7.03;5.55;;;13.10;99.90;;;;;;5048443;27;20831;-62
2022/05/01 07:22:05;;;;;;;5.97;5.18;;;13.10;99.90;;;;;;5046925;27;20680;-64
2022/05/01 07:24:33;;;;;;;6.10;5.53;;;13.20;99.90;;;;;;5047948;27;20294;-62
2022/05/01 07:27:01;;;;;;;6.18;5.20;;;13.30;99.90;;;;;;5042456;27;20617;-64
2022/05/01 07:29:29;;;;;;;6.20;5.70;;;13.00;99.90;;;;;;5049595;27;20316;-62
2022/05/01 07:31:57;;;;;;;7.00;5.82;;;13.10;99.90;;;;;;5047029;27;20902;-62
2022/05/01 07:34:26;;;;;;;5.22;4.82;;;13.20;99.90;;;;;;5047136;27;20315;-64
2022/05/01 07:36:54;;;;;;;6.30;5.30;;;13.30;99.90;;;;;;5044246;27;20319;-62
2022/05/01 07:39:22;;;;;;;5.78;5.00;;;13.40;99.90;;;;;;5047793;27;20629;-62
2022/05/01 07:41:50;;;;;;;6.40;4.80;;;13.50;99.90;;;;;;5045756;27;20196;-64
2022/05/01 07:44:18;;;;;;;5.68;5.05;;;13.50;99.90;;;;;;5047290;27;20227;-62
2022/05/01 07:46:46;;;;;;;5.10;4.70;;;13.60;99.90;;;;;;5042603;27;20297;-62
2022/05/01 07:49:15;;;;;;;6.78;6.05;;;13.70;99.90;;;;;;5047279;27;20280;-63
2022/05/01 07:51:44;;;;;;;6.28;5.57;;;13.70;99.90;;;;;;5047120;27;20223;-62
2022/05/01 07:54:12;;;;;;;10.73;6.50;;;13.60;99.90;;;;;;5047335;27;20820;-62
2022/05/01 07:56:45;;;;;;;6.43;5.82;;;13.90;99.90;;;;;;5043762;27;20386;-62
2022/05/01 07:59:14;;;;;;;7.22;5.68;;;13.90;99.90;;;;;;5046018;27;20227;-63
2022/05/01 08:01:41;;;;;;;6.63;6.03;;;13.90;99.90;;;;;;5048767;27;20229;-63
2022/05/01 08:04:28;;;;;;;8.18;7.35;;;14.00;99.90;;;;;;5044827;27;20203;-63
2022/05/01 08:06:59;;;;;;;6.30;5.80;;;14.00;99.90;;;;;;5044355;27;20306;-63
2022/05/01 08:09:27;;;;;;;6.28;5.70;;;14.00;99.90;;;;;;5046858;27;20258;-62
2022/05/01 08:11:56;;;;;;;7.10;6.40;;;14.10;99.90;;;;;;5046514;27;20319;-62
2022/05/01 08:14:24;;;;;;;7.15;6.45;;;14.30;99.90;;;;;;5046686;27;20329;-64
2022/05/01 08:16:53;;;;;;;7.10;6.40;;;14.50;99.90;;;;;;5041918;27;20260;-64
2022/05/01 08:22:08;;;;;;;7.28;6.47;;;14.70;99.90;;;;;;5040417;27;20208;-62
2022/05/01 08:24:36;;;;;;;9.00;8.10;;;14.80;99.90;;;;;;5043835;27;20216;-62
2022/05/01 08:27:08;;;;;;;7.00;6.40;;;14.70;99.90;;;;;;5028031;27;20674;-62
2022/05/01 08:29:38;;;;;;;9.48;6.85;;;14.60;99.90;;;;;;5027941;27;20321;-63
2022/05/01 08:32:07;;;;;;;8.18;5.20;;;14.50;99.90;;;;;;5026815;27;21600;-62
2022/05/01 08:34:35;;;;;;;7.70;6.95;;;14.40;99.90;;;;;;5027478;27;20232;-64
2022/05/01 08:37:03;;;;;;;6.35;5.35;;;14.50;99.90;;;;;;5026070;27;21074;-61
2022/05/01 08:39:33;;;;;;;6.18;5.55;;;14.70;99.90;;;;;;5027912;27;20722;-63
2022/05/01 08:42:03;;;;;;;7.63;6.82;;;15.00;99.90;;;;;;5026717;27;20679;-62
2022/05/01 08:44:33;;;;;;;8.35;7.50;;;15.00;99.90;;;;;;5029474;27;21546;-62
2022/05/01 08:47:14;;;;;;;8.50;6.80;;;15.10;99.90;;;;;;5026446;27;20315;-63
2022/05/01 08:49:42;;;;;;;8.40;6.95;;;15.30;99.90;;;;;;5022125;27;20736;-63
2022/05/01 08:52:11;;;;;;;11.45;6.60;;;15.20;99.90;;;;;;5026005;27;20209;-63
2022/05/01 08:54:41;;;;;;;10.40;7.43;;;15.20;99.90;;;;;;5026125;27;20373;-63
2022/05/01 08:57:09;;;;;;;7.32;6.60;;;15.10;99.90;;;;;;5025071;27;20252;-65
2022/05/01 08:59:37;;;;;;;7.53;6.80;;;15.20;99.90;;;;;;5028354;27;20209;-63
2022/05/01 09:02:09;;;;;;;7.20;6.38;;;15.40;99.90;;;;;;5029185;27;20228;-63
2022/05/01 09:04:38;;;;;;;10.25;7.45;;;15.60;99.90;;;;;;5024873;27;20286;-63
2022/05/01 09:07:06;;;;;;;7.43;6.75;;;15.70;99.90;;;;;;5025117;27;20752;-65
2022/05/01 09:09:33;;;;;;;6.65;6.05;;;15.90;99.90;;;;;;5027459;27;20220;-62
2022/05/01 09:14:49;;;;;;;7.43;6.72;;;16.20;99.90;;;;;;5027131;27;20722;-63
2022/05/01 09:17:19;;;;;;;7.90;6.43;;;16.50;99.90;;;;;;5026362;27;20277;-64
2022/05/01 09:19:49;;;;;;;7.55;6.75;;;16.80;99.90;;;;;;5027597;27;20205;-63
2022/05/01 09:22:18;;;;;;;7.25;6.65;;;16.90;99.90;;;;;;5027046;27;20208;-63
2022/05/01 09:24:52;;;;;;;8.48;6.15;;;16.90;99.90;;;;;;5026116;27;20261;-65
2022/05/01 09:27:30;;;;;;;7.82;7.13;;;17.10;99.90;;;;;;5023080;27;20198;-63
2022/05/01 09:30:08;;;;;;;8.13;6.63;;;17.10;99.90;;;;;;5027724;27;20234;-63
2022/05/01 09:32:38;;;;;;;8.93;8.00;;;17.20;99.90;;;;;;5026304;27;20300;-63
2022/05/01 09:35:07;;;;;;;7.20;6.60;;;17.00;99.90;;;;;;5026329;27;20252;-64
2022/05/01 09:37:35;;;;;;;8.30;6.75;;;17.00;99.90;;;;;;5024702;27;20236;-64
2022/05/01 09:40:03;;;;;;;8.02;6.93;;;17.00;99.90;;;;;;5026560;27;20225;-63
2022/05/01 09:42:36;;;;;;;6.93;6.28;;;17.10;99.90;;;;;;5027346;27;20254;-63
2022/05/01 09:45:07;;;;;;;10.30;8.30;;;16.80;99.90;;;;;;5026496;27;20200;-62
2022/05/01 09:47:36;;;;;;;7.68;6.97;;;16.60;99.90;;;;;;5023021;27;20711;-63
2022/05/01 09:50:05;;;;;;;10.43;7.20;;;16.60;99.90;;;;;;5025958;27;20537;-62
2022/05/01 09:52:59;;;;;;;8.57;7.65;;;16.60;99.90;;;;;;5027211;27;20281;-64
2022/05/01 09:55:28;;;;;;;7.75;6.85;;;16.60;99.90;;;;;;5027822;27;20704;-62
2022/05/01 09:58:06;;;;;;;7.90;7.20;;;16.60;99.90;;;;;;5023995;27;20673;-63
2022/05/01 10:00:36;;;;;;;9.43;7.25;;;16.70;99.90;;;;;;5026552;27;20232;-62
2022/05/01 10:03:28;;;;;;;8.18;7.05;;;16.70;99.90;;;;;;5024946;27;20231;-63
2022/05/01 10:05:58;;;;;;;9.65;7.60;;;17.10;99.90;;;;;;5027025;27;20231;-62
2022/05/01 10:08:26;;;;;;;8.27;7.57;;;17.30;99.90;;;;;;5022324;27;20941;-63
2022/05/01 10:10:57;;;;;;;7.80;7.18;;;17.50;99.90;;;;;;5024678;27;21430;-64
2022/05/01 10:13:27;;;;;;;10.05;8.40;;;17.70;99.90;;;;;;5025063;27;20213;-64
2022/05/01 10:16:08;;;;;;;8.45;7.65;;;17.80;99.90;;;;;;5027644;27;20232;-63
2022/05/01 10:18:37;;;;;;;6.80;6.20;;;18.00;99.90;;;;;;5024279;27;20841;-64
2022/05/01 10:21:05;;;;;;;8.23;6.35;;;18.00;99.90;;;;;;5024598;27;20205;-62
2022/05/01 10:23:35;;;;;;;7.85;7.15;;;18.10;99.90;;;;;;5023635;27;20303;-63
2022/05/01 10:26:10;;;;;;;9.30;7.30;;;18.10;99.90;;;;;;5025200;27;21549;-62
2022/05/01 10:29:22;;;;;;;8.02;7.30;;;18.10;99.90;;;;;;5022653;27;20221;-62
2022/05/01 10:32:21;;;;;;;10.32;7.53;;;18.30;99.90;;;;;;5023448;27;20311;-62
2022/05/01 10:35:32;;;;;;;6.72;6.13;;;18.60;99.90;;;;;;5023269;27;20239;-63
2022/05/01 10:38:12;;;;;;;6.60;6.00;;;19.00;99.90;;;;;;5020132;27;20268;-62
2022/05/01 10:40:43;;;;;;;8.60;6.78;;;18.70;99.90;;;;;;5022981;27;20288;-63
2022/05/01 10:43:24;;;;;;;8.95;7.10;;;18.80;99.90;;;;;;5025719;27;20725;-63
2022/05/01 10:45:54;;;;;;;9.05;7.35;;;18.80;99.90;;;;;;5025211;27;20257;-63
2022/05/01 10:48:32;;;;;;;10.02;7.30;;;18.40;99.90;;;;;;5020363;27;20200;-62
2022/05/01 10:51:38;;;;;;;9.63;7.60;;;18.50;99.90;;;;;;5027646;27;20719;-62
2022/05/01 10:54:35;;;;;;;8.15;7.03;;;18.70;99.90;;;;;;5024647;27;20608;-62
2022/05/01 10:57:14;;;;;;;9.38;8.23;;;18.40;99.90;;;;;;5021956;28;20301;-62
2022/05/01 10:59:46;;;;;;;8.70;7.90;;;18.40;99.90;;;;;;5026828;28;20253;-62
2022/05/01 11:02:40;;;;;;;10.02;7.75;;;18.30;99.90;;;;;;5024562;28;20904;-62
2022/05/01 11:05:09;;;;;;;8.52;7.82;;;18.20;99.90;;;;;;5025794;28;20252;-63
2022/05/01 11:07:39;;;;;;;8.70;7.65;;;18.20;99.90;;;;;;5022066;28;20221;-62
2022/05/01 11:10:11;;;;;;;11.88;7.90;;;18.20;99.90;;;;;;5025523;28;20225;-62
2022/05/01 11:12:39;;;;;;;9.13;7.50;;;18.00;99.90;;;;;;5016472;28;20311;-63
2022/05/01 11:15:08;;;;;;;9.52;7.72;;;18.00;99.90;;;;;;5026001;28;20323;-63
2022/05/01 11:17:53;;;;;;;8.80;7.90;;;17.90;99.90;;;;;;5021927;28;20212;-62
2022/05/01 11:20:39;;;;;;;10.20;7.85;;;18.10;99.90;;;;;;5025755;28;20691;-63
2022/05/01 11:23:35;;;;;;;8.15;7.40;;;18.30;99.90;;;;;;5031512;28;20211;-62
2022/05/01 11:26:10;;;;;;;8.90;8.07;;;18.40;99.90;;;;;;5025388;28;20344;-63
2022/05/01 11:28:46;;;;;;;11.10;7.43;;;18.60;99.90;;;;;;5023344;28;20212;-64
2022/05/01 11:31:44;;;;;;;7.15;6.45;;;18.70;99.90;;;;;;5023921;28;20204;-63
2022/05/01 11:34:54;;;;;;;8.20;7.40;;;18.80;99.90;;;;;;5023042;28;20201;-63
2022/05/01 11:37:24;;;;;;;8.60;7.80;;;18.90;99.90;;;;;;5021244;28;20205;-64
2022/05/01 11:40:17;;;;;;;8.82;7.90;;;18.90;99.90;;;;;;5022837;28;20281;-64
2022/05/01 11:42:46;;;;;;;10.70;7.53;;;18.60;99.90;;;;;;5022366;28;20301;-63
2022/05/01 11:45:14;;;;;;;8.02;6.97;;;18.40;99.90;;;;;;5022291;28;20229;-64
2022/05/01 11:47:43;;;;;;;13.65;7.28;;;18.50;99.90;;;;;;5020866;28;21284;-63
2022/05/01 11:50:24;;;;;;;7.90;7.10;;;18.50;99.90;;;;;;5022395;28;20235;-63
2022/05/01 11:52:53;;;;;;;8.55;7.22;;;18.70;99.90;;;;;;5033996;27;20262;-62
2022/05/01 12:02:24;;;;;;;9.48;7.70;;;19.00;99.90;;;;;;5021082;28;20252;-65
2022/05/01 12:03:41;;;;;;;7.65;6.38;;;19.40;99.90;;;;;;5105811;28;20198;-63
2022/05/01 12:06:10;;;;;;;7.93;7.20;;;19.90;99.90;;;;;;5104944;28;20281;-63
2022/05/01 12:08:49;;;;;;;6.85;6.10;;;20.30;99.90;;;;;;5113649;28;20309;-63
2022/05/01 12:11:34;;;;;;;8.05;7.30;;;20.70;99.90;;;;;;5113889;28;20238;-63
2022/05/01 12:14:07;;;;;;;8.50;6.72;;;21.00;99.90;;;;;;5113191;28;20242;-63
2022/05/01 12:16:35;;;;;;;8.48;7.78;;;21.20;99.60;;;;;;5113841;28;20248;-63
2022/05/01 12:19:04;;;;;;;8.63;7.40;;;21.10;99.90;;;;;;5113321;28;20206;-63
2022/05/01 12:21:35;;;;;;;7.50;6.80;;;20.80;99.90;;;;;;5113754;28;20209;-63
2022/05/01 12:24:04;;;;;;;7.18;6.45;;;20.70;99.90;;;;;;5113205;28;20292;-63
2022/05/01 12:26:36;;;;;;;7.40;5.90;;;20.80;99.90;;;;;;5113798;28;20205;-63
2022/05/01 12:29:07;;;;;;;6.88;6.20;;;20.70;99.70;;;;;;5113832;28;20296;-65
2022/05/01 12:32:11;;;;;;;6.28;5.78;;;20.60;99.50;;;;;;5113950;28;20723;-65
2022/05/01 12:34:43;;;;;;;6.80;5.85;;;20.50;99.90;;;;;;5102166;28;20625;-65
2022/05/01 12:37:14;;;;;;;9.85;6.72;;;20.20;99.90;;;;;;5095684;28;20314;-65
2022/05/01 12:39:44;;;;;;;7.30;6.60;;;20.30;99.60;;;;;;5093858;28;20203;-65
2022/05/01 12:45:08;;;;;;;8.57;7.55;;;20.00;99.90;;;;;;5108364;28;20233;-65
2022/05/01 12:47:38;;;;;;;9.13;7.85;;;19.70;99.90;;;;;;5113423;28;20241;-62
2022/05/01 12:50:08;;;;;;;7.38;6.68;;;19.70;99.90;;;;;;5113264;28;20262;-64
2022/05/01 12:52:39;;;;;;;7.60;7.00;;;19.90;99.90;;;;;;5112625;28;20247;-65
2022/05/01 12:55:18;;;;;;;6.75;6.25;;;19.50;99.90;;;;;;5112879;28;20599;-64
2022/05/01 12:57:52;;;;;;;7.72;6.43;;;19.30;99.90;;;;;;5112819;28;20255;-64
2022/05/01 13:00:30;;;;;;;7.28;6.57;;;19.10;99.90;;;;;;5113024;28;20219;-64
2022/05/01 13:03:12;;;;;;;7.43;6.85;;;19.10;99.90;;;;;;5111957;28;20697;-64
2022/05/01 13:05:41;;;;;;;8.55;6.55;;;18.70;99.90;;;;;;5107629;28;20288;-64
2022/05/01 13:08:20;;;;;;;7.75;7.05;;;18.50;99.90;;;;;;5105126;28;20256;-64
2022/05/01 13:11:09;;;;;;;7.53;6.90;;;18.50;99.90;;;;;;5093275;28;20707;-64
2022/05/01 13:13:50;;;;;;;7.20;5.82;;;18.40;99.90;;;;;;5105988;28;20244;-63
2022/05/01 13:16:21;;;;;;;7.95;7.25;;;18.30;99.90;;;;;;5112888;28;20599;-64
2022/05/01 13:18:50;;;;;;;7.82;7.13;;;18.10;99.90;;;;;;5112338;28;20198;-63
2022/05/01 13:21:18;;;;;;;8.23;7.53;;;17.80;99.90;;;;;;5112550;28;20872;-63
2022/05/01 13:23:49;;;;;;;10.80;7.47;;;17.70;99.90;;;;;;5112240;28;20202;-63
2022/05/01 13:26:17;;;;;;;9.30;7.32;;;17.70;99.90;;;;;;5112383;28;20251;-63
2022/05/01 13:28:45;;;;;;;10.90;7.05;;;17.60;99.90;;;;;;5112231;28;20271;-63
2022/05/01 13:31:14;;;;;;;11.65;6.63;;;17.80;99.90;;;;;;5112399;28;20218;-63
2022/05/01 13:33:43;;;;;;;8.10;6.63;;;17.90;99.90;;;;;;5111587;28;20243;-63
2022/05/01 13:36:12;;;;;;;7.30;6.45;;;18.10;99.90;;;;;;5103043;27;20277;-64